Time;durP1;ratioP1;P1;durP2;ratioP2;P2;SDS_P1;SDS_P2;PMS_P1;PMS_P2;Temp;Humidity;BMP_temperature;BMP_pressure;BME280_temperature;BME280_humidity;BME280_pressure;Samples;Min_cycle;Max_cycle;Signal;HPM_P1;HPM_P2
2022/12/28 00:00:28;;;;;;;31.80;22.67;;;;;;;8.44;67.08;100503.91;5052745;28;20025;-79
2022/12/28 00:02:55;;;;;;;17.50;14.70;;;;;;;7.62;67.19;100363.16;5052614;28;20104;-78
2022/12/28 00:05:21;;;;;;;15.85;13.10;;;;;;;8.60;66.83;100506.78;5051786;28;20020;-79
2022/12/28 00:07:46;;;;;;;20.15;15.63;;;;;;;8.25;66.83;100437.16;5053063;28;20040;-79
2022/12/28 00:10:12;;;;;;;24.23;19.42;;;;;;;8.72;66.74;100510.91;5051444;28;20021;-79
2022/12/28 00:12:37;;;;;;;23.27;18.38;;;;;;;8.73;66.75;100509.09;5052699;28;20430;-79
2022/12/28 00:15:03;;;;;;;21.10;16.92;;;;;;;8.74;66.81;100514.22;5052924;28;20025;-79
2022/12/28 00:17:28;;;;;;;24.27;19.67;;;;;;;8.08;66.78;100408.91;5052811;28;20025;-79
2022/12/28 00:19:53;;;;;;;21.65;18.17;;;;;;;8.72;66.72;100515.34;5052918;28;20013;-79
2022/12/28 00:22:19;;;;;;;20.70;16.17;;;;;;;8.07;66.70;100419.56;5052470;28;20025;-79
2022/12/28 00:24:44;;;;;;;19.80;15.63;;;;;;;8.78;66.61;100536.69;5052894;28;20025;-79
2022/12/28 00:27:10;;;;;;;22.85;19.25;;;;;;;8.22;66.63;100434.81;5052440;28;20029;-79
2022/12/28 00:29:35;;;;;;;20.63;15.60;;;;;;;8.78;66.85;100536.69;5052158;28;20025;-79
2022/12/28 00:32:00;;;;;;;19.50;15.98;;;;;;;8.62;67.00;100510.09;5052061;28;20017;-79
2022/12/28 00:34:26;;;;;;;25.05;19.70;;;;;;;8.40;66.67;100468.31;5052015;28;20033;-79
2022/12/28 00:36:52;;;;;;;22.52;17.48;;;;;;;8.77;66.67;100550.81;5051885;28;20075;-79
2022/12/28 00:39:18;;;;;;;20.38;15.82;;;;;;;8.70;67.21;100523.38;5051990;28;20024;-79
2022/12/28 00:41:44;;;;;;;20.92;16.40;;;;;;;8.47;67.30;100479.94;5051799;28;20417;-79
2022/12/28 00:44:10;;;;;;;20.55;16.25;;;;;;;8.80;67.19;100537.38;5051694;28;20024;-79
2022/12/28 00:46:35;;;;;;;20.70;15.68;;;;;;;8.64;67.45;100513.44;5050337;28;20017;-79
2022/12/28 00:49:00;;;;;;;19.92;15.52;;;;;;;8.22;67.12;100455.84;5050754;28;20028;-80
2022/12/28 00:51:26;;;;;;;18.63;15.65;;;;;;;8.82;67.24;100547.75;5050310;28;20025;-79
2022/12/28 00:53:51;;;;;;;22.33;18.50;;;;;;;8.67;67.01;100522.84;5051761;28;20044;-79
2022/12/28 00:56:20;;;;;;;18.60;16.05;;;;;;;8.84;67.27;100551.91;5051714;28;20021;-80
2022/12/28 00:58:45;;;;;;;21.30;15.65;;;;;;;8.85;67.13;100553.56;5051731;28;20036;-79
2022/12/28 01:01:20;;;;;;;21.27;17.33;;;;;;;8.84;67.26;100541.38;5051686;28;20405;-79
2022/12/28 01:03:45;;;;;;;18.00;15.18;;;;;;;8.86;67.10;100549.13;5051630;28;20114;-79
2022/12/28 01:06:13;;;;;;;18.17;14.55;;;;;;;8.73;67.21;100519.63;5051573;28;20099;-79
2022/12/28 01:08:39;;;;;;;18.60;15.48;;;;;;;8.55;67.13;100487.97;5051456;28;20025;-79
2022/12/28 01:11:10;;;;;;;17.50;14.63;;;;;;;8.87;67.03;100532.34;5050087;28;20036;-79
2022/12/28 01:13:37;;;;;;;21.95;15.80;;;;;;;8.59;67.11;100497.22;5051437;28;20517;-79
2022/12/28 01:16:10;;;;;;;19.45;15.50;;;;;;;8.89;67.35;100527.78;5051346;28;20064;-79
2022/12/28 01:18:36;;;;;;;21.48;16.88;;;;;;;8.75;67.25;100536.13;5051428;28;20379;-79
2022/12/28 01:21:08;;;;;;;20.05;15.18;;;;;;;8.85;67.20;100536.94;5050147;28;20031;-79
2022/12/28 01:23:33;;;;;;;19.08;14.07;;;;;;;8.55;67.26;100496.69;5051735;28;20036;-79
2022/12/28 01:26:01;;;;;;;18.50;14.10;;;;;;;8.42;67.56;100477.72;5050971;28;20025;-79
2022/12/28 01:28:28;;;;;;;20.40;15.88;;;;;;;8.21;67.37;100441.03;5050982;28;20494;-79
2022/12/28 01:30:53;;;;;;;20.85;15.20;;;;;;;8.31;67.29;100454.19;5051112;28;20032;-79
2022/12/28 01:33:18;;;;;;;12.95;10.85;;;;;;;8.86;67.14;100546.50;5051298;28;20029;-79
2022/12/28 01:35:44;;;;;;;11.93;9.75;;;;;;;8.55;66.91;100485.31;5051319;28;20025;-79
2022/12/28 01:38:09;;;;;;;12.13;8.93;;;;;;;9.02;66.32;100545.94;5051235;28;20020;-79
2022/12/28 01:40:35;;;;;;;14.98;12.32;;;;;;;8.98;65.92;100532.22;5051257;28;20021;-79
2022/12/28 01:43:00;;;;;;;12.93;11.18;;;;;;;8.86;66.04;100488.56;5051015;28;20028;-79
2022/12/28 01:45:26;;;;;;;13.27;10.10;;;;;;;9.17;65.69;100542.69;5051373;28;20082;-79
2022/12/28 01:47:53;;;;;;;12.52;11.10;;;;;;;9.19;65.62;100540.72;5051037;28;20024;-79
2022/12/28 01:50:26;;;;;;;9.65;8.40;;;;;;;8.71;65.49;100467.13;5051058;28;20043;-79
2022/12/28 01:53:00;;;;;;;9.50;8.40;;;;;;;9.21;65.31;100548.50;5050947;28;20485;-79
2022/12/28 01:55:32;;;;;;;11.23;9.32;;;;;;;9.05;65.04;100527.19;5051044;28;20032;-79
2022/12/28 01:58:12;;;;;;;11.63;9.68;;;;;;;9.20;64.80;100547.66;5051153;28;20100;-79
2022/12/28 02:00:39;;;;;;;10.10;9.07;;;;;;;8.77;64.99;100474.44;5053942;28;20020;-79
2022/12/28 02:03:26;;;;;;;10.15;8.15;;;;;;;9.35;64.81;100555.09;5055005;28;20505;-79
2022/12/28 02:05:55;;;;;;;11.00;9.38;;;;;;;9.37;64.68;100559.25;5054729;28;20025;-80
2022/12/28 02:08:56;;;;;;;9.82;8.05;;;;;;;9.40;64.68;100563.41;5053476;28;20409;-79
2022/12/28 02:11:22;;;;;;;10.70;9.18;;;;;;;8.40;64.73;100399.91;5054152;28;20521;-80
2022/12/28 02:13:50;;;;;;;13.35;9.90;;;;;;;8.98;64.34;100490.06;5054625;28;20055;-79
2022/12/28 02:16:15;;;;;;;9.52;8.35;;;;;;;8.96;64.88;100501.72;5054957;28;20035;-79
2022/12/28 02:18:43;;;;;;;11.32;9.77;;;;;;;9.11;64.63;100527.44;5055346;28;20088;-79
2022/12/28 02:21:09;;;;;;;12.32;9.52;;;;;;;9.32;64.64;100558.03;5061504;28;20033;-80
2022/12/28 02:23:37;;;;;;;11.45;9.98;;;;;;;8.26;64.83;100391.47;5062257;28;20021;-79
2022/12/28 02:26:30;;;;;;;10.88;9.68;;;;;;;9.28;64.71;100559.28;5054901;28;20021;-79
2022/12/28 02:29:10;;;;;;;10.48;8.88;;;;;;;9.25;65.08;100557.78;5054821;28;20025;-79
2022/12/28 02:31:41;;;;;;;10.38;9.25;;;;;;;8.87;64.65;100496.31;5054864;28;20021;-79
2022/12/28 02:34:23;;;;;;;10.77;9.40;;;;;;;9.05;65.08;100521.94;5054657;28;20489;-79
2022/12/28 02:36:58;;;;;;;11.27;9.48;;;;;;;9.01;64.93;100531.09;5054787;28;20035;-79
2022/12/28 02:39:33;;;;;;;11.68;9.85;;;;;;;9.11;65.13;100568.78;5055903;28;20021;-79
2022/12/28 02:42:00;;;;;;;10.52;9.30;;;;;;;8.33;65.15;100418.06;5058505;28;20103;-79
2022/12/28 02:50:06;;;;;;;11.45;9.70;;;;;;;8.87;65.42;100521.81;5053936;28;20051;-79
2022/12/28 02:52:45;;;;;;;13.77;11.05;;;;;;;9.12;65.34;100557.25;5053995;28;20045;-79
2022/12/28 02:58:31;;;;;;;15.48;11.48;;;;;;;9.10;65.35;100572.38;5053850;28;20035;-79
2022/12/28 03:01:12;;;;;;;13.13;10.95;;;;;;;9.10;65.39;100573.22;5053613;28;20028;-79
2022/12/28 03:04:03;;;;;;;14.68;11.13;;;;;;;8.66;65.20;100514.13;5053749;28;20025;-79
2022/12/28 03:09:37;;;;;;;12.88;10.63;;;;;;;9.09;65.24;100584.72;5053443;28;20029;-79
2022/12/28 03:12:18;;;;;;;12.25;10.43;;;;;;;8.39;65.19;100471.91;5052437;28;20083;-80
2022/12/28 03:15:03;;;;;;;14.55;11.52;;;;;;;9.07;65.22;100615.66;5053503;28;20048;-79
2022/12/28 03:31:29;;;;;;;15.25;12.38;;;;;;;8.75;65.57;100552.75;5053578;28;20079;-79
2022/12/28 03:34:05;;;;;;;16.63;14.07;;;;;;;8.90;65.64;100598.75;5052948;28;20024;-79
2022/12/28 03:36:45;;;;;;;16.75;13.52;;;;;;;9.03;65.32;100608.19;5052916;28;20020;-79
2022/12/28 03:39:35;;;;;;;15.77;12.77;;;;;;;8.53;65.38;100529.38;5052970;28;20017;-79
2022/12/28 03:45:15;;;;;;;11.30;8.50;;;;;;;9.01;64.92;100615.38;5053229;28;20090;-79
2022/12/28 03:47:43;;;;;;;13.77;10.45;;;;;;;8.87;65.03;100585.03;5053068;28;20132;-78
2022/12/28 03:50:10;;;;;;;10.90;8.00;;;;;;;9.05;64.82;100614.13;5053159;28;20052;-79
2022/12/28 03:52:35;;;;;;;10.13;7.97;;;;;;;9.07;64.72;100615.66;5053475;28;20055;-79
2022/12/28 03:55:01;;;;;;;10.13;8.77;;;;;;;7.41;64.40;100348.47;5053288;28;20025;-79
2022/12/28 03:57:26;;;;;;;9.35;8.32;;;;;;;9.11;64.29;100609.13;5053075;28;20021;-79
2022/12/28 03:59:51;;;;;;;9.38;7.22;;;;;;;8.91;64.24;100586.41;5053392;28;20028;-79
2022/12/28 04:02:17;;;;;;;11.23;7.88;;;;;;;9.12;63.89;100621.31;5053192;28;20025;-79
2022/12/28 04:04:42;;;;;;;8.88;6.55;;;;;;;9.12;63.93;100623.97;5053225;28;20105;-80
2022/12/28 04:07:08;;;;;;;6.20;5.60;;;;;;;8.97;63.71;100601.66;5053129;28;20029;-79
2022/12/28 04:09:33;;;;;;;7.88;6.35;;;;;;;8.80;63.52;100582.13;5052784;28;20028;-79
2022/12/28 04:11:59;;;;;;;6.93;5.80;;;;;;;9.16;63.95;100640.31;5052686;28;20049;-79
2022/12/28 04:14:24;;;;;;;8.90;6.80;;;;;;;9.18;63.49;100646.28;5052754;28;20029;-79
2022/12/28 04:16:49;;;;;;;11.95;8.98;;;;;;;9.18;63.12;100633.09;5052446;28;20029;-80
2022/12/28 04:19:15;;;;;;;11.25;8.13;;;;;;;8.63;63.26;100551.25;5052388;28;20013;-80
2022/12/28 04:21:40;;;;;;;10.57;8.35;;;;;;;9.20;63.04;100646.97;5052206;28;20017;-79
2022/12/28 04:24:06;;;;;;;11.35;9.27;;;;;;;8.63;62.89;100561.78;5051983;28;20032;-79
2022/12/28 04:26:31;;;;;;;11.27;9.15;;;;;;;8.87;62.98;100606.09;5052164;28;20067;-79
2022/12/28 04:29:00;;;;;;;12.07;9.88;;;;;;;8.97;62.88;100625.38;5051944;28;20551;-79
2022/12/28 04:31:27;;;;;;;11.00;9.82;;;;;;;8.76;63.02;100590.44;5052190;28;20075;-79
2022/12/28 04:33:52;;;;;;;11.95;9.45;;;;;;;8.97;62.77;100625.38;5050818;28;20017;-79
2022/12/28 04:36:18;;;;;;;12.43;9.80;;;;;;;9.07;62.72;100643.81;5051862;28;20033;-79
2022/12/28 04:38:43;;;;;;;11.95;9.52;;;;;;;8.63;62.82;100574.13;5051657;28;20553;-79
2022/12/28 04:41:10;;;;;;;13.85;10.00;;;;;;;9.17;62.90;100663.88;5051858;28;20021;-79
2022/12/28 04:43:36;;;;;;;15.60;11.75;;;;;;;9.09;62.64;100653.22;5051760;28;20486;-79
2022/12/28 04:46:09;;;;;;;16.30;12.07;;;;;;;8.98;62.84;100631.47;5051972;28;20031;-79
2022/12/28 04:48:35;;;;;;;13.63;11.25;;;;;;;8.82;63.10;100608.31;5051804;28;20021;-79
2022/12/28 04:51:09;;;;;;;16.02;11.65;;;;;;;8.90;62.85;100627.72;5052015;28;20028;-79
2022/12/28 04:53:39;;;;;;;15.93;10.30;;;;;;;9.13;62.95;100659.03;5052173;28;20052;-79
2022/12/28 04:56:07;;;;;;;10.75;8.90;;;;;;;9.11;62.64;100661.81;5052269;28;20482;-79
2022/12/28 04:58:33;;;;;;;14.23;11.02;;;;;;;9.13;62.58;100674.84;5050772;28;20023;-79
2022/12/28 05:01:09;;;;;;;13.85;10.98;;;;;;;8.51;63.05;100568.16;5052205;28;20028;-79
2022/12/28 05:03:36;;;;;;;16.55;11.95;;;;;;;8.94;62.75;100648.53;5052149;28;20021;-80
2022/12/28 05:06:04;;;;;;;14.98;11.38;;;;;;;8.37;62.92;100547.53;5051777;28;20028;-80
2022/12/28 05:08:31;;;;;;;15.68;11.88;;;;;;;8.24;62.86;100526.75;5051723;28;20053;-80
2022/12/28 05:11:05;;;;;;;14.38;11.18;;;;;;;8.87;62.99;100650.88;5051900;28;20029;-80
2022/12/28 05:13:31;;;;;;;13.82;11.52;;;;;;;7.87;62.91;100476.59;5051984;28;20096;-79
2022/12/28 05:16:01;;;;;;;13.88;11.10;;;;;;;9.03;63.01;100674.03;5051874;28;20092;-79
2022/12/28 05:18:27;;;;;;;16.58;11.35;;;;;;;8.55;62.84;100587.97;5051430;28;20112;-79
2022/12/28 05:20:59;;;;;;;15.63;11.63;;;;;;;9.01;62.97;100674.16;5051256;28;20031;-79
2022/12/28 05:23:26;;;;;;;16.70;11.55;;;;;;;8.81;62.97;100647.00;5051283;28;20048;-79
2022/12/28 05:25:52;;;;;;;13.40;10.55;;;;;;;8.84;63.04;100653.78;5051145;28;20103;-79
2022/12/28 05:28:18;;;;;;;13.25;9.88;;;;;;;9.00;62.69;100701.47;5051127;28;20021;-79
2022/12/28 05:30:43;;;;;;;12.10;9.55;;;;;;;7.87;62.85;100510.78;5051236;28;20028;-79
2022/12/28 05:33:08;;;;;;;12.35;9.18;;;;;;;8.89;63.10;100670.00;5051545;28;20025;-79
2022/12/28 05:35:34;;;;;;;13.60;10.75;;;;;;;8.51;63.05;100615.53;5057639;28;20154;-79
2022/12/28 05:37:59;;;;;;;12.57;9.30;;;;;;;8.02;62.92;100537.50;5058152;28;20508;-79
2022/12/28 05:40:25;;;;;;;11.48;9.63;;;;;;;8.87;63.36;100672.75;5058313;28;20097;-79
2022/12/28 05:42:50;;;;;;;11.32;9.20;;;;;;;7.71;63.03;100486.81;5058195;28;20052;-79
2022/12/28 05:45:16;;;;;;;13.60;10.15;;;;;;;8.28;63.19;100575.47;5058020;28;20032;-79
2022/12/28 05:47:41;;;;;;;14.90;11.43;;;;;;;8.40;62.92;100613.06;5057819;28;20031;-79
2022/12/28 05:50:06;;;;;;;14.95;10.52;;;;;;;8.95;63.18;100705.50;5057663;28;20024;-79
2022/12/28 05:52:32;;;;;;;12.73;10.65;;;;;;;8.79;63.47;100690.22;5057494;28;20489;-79
2022/12/28 05:54:57;;;;;;;13.82;10.88;;;;;;;8.36;63.27;100623.03;5056357;28;20057;-79
2022/12/28 05:57:23;;;;;;;13.40;9.80;;;;;;;8.98;63.30;100723.66;5057589;28;20025;-80
2022/12/28 05:59:48;;;;;;;13.40;10.57;;;;;;;8.87;63.40;100701.72;5057681;28;20207;-79
2022/12/28 06:02:14;;;;;;;13.15;10.63;;;;;;;8.90;63.78;100713.78;5057679;28;20494;-79
2022/12/28 06:04:39;;;;;;;14.55;10.93;;;;;;;8.51;63.34;100655.03;5056444;28;20031;-79
2022/12/28 06:07:04;;;;;;;14.07;11.50;;;;;;;8.86;63.58;100717.69;5057618;28;20033;-79
2022/12/28 06:09:30;;;;;;;14.10;10.98;;;;;;;8.95;63.79;100745.84;5057809;28;20029;-79
2022/12/28 06:11:55;;;;;;;11.93;10.70;;;;;;;8.62;63.73;100683.03;5057773;28;20056;-79
2022/12/28 06:14:20;;;;;;;13.95;11.50;;;;;;;8.23;63.90;100619.78;5057896;28;20471;-79
2022/12/28 06:16:46;;;;;;;15.68;11.85;;;;;;;8.55;63.90;100683.56;5057646;28;20032;-79
2022/12/28 06:19:14;;;;;;;16.30;12.40;;;;;;;8.95;63.88;100743.22;5057669;28;20100;-79
2022/12/28 06:21:40;;;;;;;15.52;12.10;;;;;;;8.95;64.05;100747.66;5057357;28;20078;-79
2022/12/28 06:24:07;;;;;;;14.65;11.93;;;;;;;8.86;64.11;100736.94;5056087;28;20052;-80
2022/12/28 06:26:34;;;;;;;16.55;12.65;;;;;;;8.74;64.42;100739.84;5056115;28;20421;-79
2022/12/28 06:29:03;;;;;;;16.25;13.90;;;;;;;8.81;64.33;100741.78;5057337;28;20025;-79
2022/12/28 06:31:36;;;;;;;16.17;14.30;;;;;;;8.94;64.15;100774.97;5055928;28;20029;-79
2022/12/28 06:34:03;;;;;;;16.45;13.32;;;;;;;7.78;64.33;100593.94;5057134;28;20063;-79
2022/12/28 06:36:31;;;;;;;16.83;14.05;;;;;;;8.96;64.74;100773.84;5057234;28;20048;-79
2022/12/28 06:38:57;;;;;;;19.55;14.15;;;;;;;8.77;64.62;100734.31;5057274;28;20044;-79
2022/12/28 06:41:24;;;;;;;18.00;14.70;;;;;;;9.00;64.45;100771.78;5057194;28;20532;-79
2022/12/28 06:43:50;;;;;;;21.85;17.20;;;;;;;9.00;64.54;100788.41;5057166;28;20036;-79
2022/12/28 06:46:18;;;;;;;20.90;16.20;;;;;;;9.02;64.89;100806.72;5054174;28;20494;-79
2022/12/28 06:48:43;;;;;;;21.77;17.65;;;;;;;9.02;64.99;100783.84;5054022;28;20490;-79
2022/12/28 06:51:15;;;;;;;21.20;17.50;;;;;;;8.49;64.67;100696.44;5053983;28;20120;-79
2022/12/28 06:53:41;;;;;;;;;;;;;;;8.89;65.77;100785.88;5054341;28;20099;-79
2022/12/28 06:56:16;;;;;;;21.42;18.20;;;;;;;8.50;65.30;100716.53;5053943;28;20441;-79
2022/12/28 06:58:42;;;;;;;23.65;17.65;;;;;;;8.94;65.54;100791.59;5053977;28;20025;-79
2022/12/28 07:01:13;;;;;;;24.20;19.13;;;;;;;8.02;65.18;100637.44;5053999;28;20028;-79
2022/12/28 07:03:39;;;;;;;25.95;19.40;;;;;;;8.63;65.60;100761.84;5054430;28;20035;-80
2022/12/28 07:06:05;;;;;;;26.02;19.65;;;;;;;7.88;65.56;100612.34;5054090;28;20025;-79
2022/12/28 07:08:32;;;;;;;28.70;21.95;;;;;;;8.86;65.76;100779.06;5053998;28;20112;-79
2022/12/28 07:11:06;;;;;;;32.33;23.42;;;;;;;8.98;65.73;100795.63;5054222;28;20033;-79
2022/12/28 07:13:32;;;;;;;31.38;22.65;;;;;;;8.99;65.37;100802.56;5053840;28;20093;-79
2022/12/28 07:16:01;;;;;;;29.48;22.75;;;;;;;8.21;65.95;100674.34;5053871;28;20466;-79
2022/12/28 07:18:27;;;;;;;29.10;24.23;;;;;;;8.69;65.85;100748.16;5053345;28;20127;-79
2022/12/28 07:21:01;;;;;;;27.20;23.25;;;;;;;9.01;65.91;100800.63;5053487;28;20497;-79
2022/12/28 07:23:29;;;;;;;32.78;25.27;;;;;;;8.25;66.01;100673.94;5053574;28;20499;-79
2022/12/28 07:25:56;;;;;;;31.85;24.25;;;;;;;9.03;66.01;100797.84;5053324;28;20029;-79
2022/12/28 07:28:22;;;;;;;33.90;24.30;;;;;;;8.79;66.21;100756.91;5053269;28;20025;-79
2022/12/28 07:30:47;;;;;;;34.85;27.40;;;;;;;9.02;66.68;100802.28;5053218;28;20448;-80
2022/12/28 07:33:12;;;;;;;36.05;28.45;;;;;;;9.02;66.36;100799.66;5053170;28;20107;-79
2022/12/28 07:35:38;;;;;;;39.33;27.88;;;;;;;8.99;66.38;100792.00;5053171;28;20029;-80
2022/12/28 07:38:03;;;;;;;37.63;28.85;;;;;;;7.97;66.27;100625.53;5053117;28;20099;-80
2022/12/28 07:40:28;;;;;;;39.38;30.25;;;;;;;8.41;66.39;100689.22;5053067;28;20029;-79
2022/12/28 07:42:54;;;;;;;51.30;36.63;;;;;;;9.12;66.50;100797.84;5051606;28;20024;-79
2022/12/28 07:45:19;;;;;;;62.33;46.25;;;;;;;8.55;66.49;100698.53;5052890;28;20086;-79
2022/12/28 07:47:45;;;;;;;55.70;46.13;;;;;;;9.16;66.53;100799.25;5053030;28;20025;-79
2022/12/28 07:50:10;;;;;;;56.03;46.05;;;;;;;9.15;66.31;100780.94;5052720;28;20032;-79
2022/12/28 07:52:36;;;;;;;57.42;44.75;;;;;;;9.21;66.17;100794.38;5052897;28;20039;-79
2022/12/28 07:55:02;;;;;;;55.58;44.80;;;;;;;8.87;65.97;100735.13;5052804;28;20421;-79
2022/12/28 07:57:27;;;;;;;57.67;47.00;;;;;;;9.00;65.96;100759.44;5052466;28;20108;-79
2022/12/28 07:59:53;;;;;;;61.65;46.97;;;;;;;9.28;66.05;100804.38;5052648;28;20112;-79
2022/12/28 08:02:18;;;;;;;62.50;48.97;;;;;;;9.11;65.88;100769.84;5052617;28;20033;-79
2022/12/28 08:04:43;;;;;;;64.75;49.30;;;;;;;8.95;66.07;100737.13;5052638;28;20029;-79
2022/12/28 08:07:09;;;;;;;67.40;55.10;;;;;;;9.17;65.73;100779.00;5052391;28;20033;-79
2022/12/28 08:09:34;;;;;;;69.40;51.53;;;;;;;9.04;65.58;100752.91;5052300;28;20040;-79
2022/12/28 08:12:01;;;;;;;61.03;47.17;;;;;;;9.37;65.67;100807.00;5052397;28;20052;-79
2022/12/28 08:14:28;;;;;;;67.88;51.63;;;;;;;9.41;65.88;100808.38;5051171;28;20045;-79
2022/12/28 08:16:53;;;;;;;79.03;54.78;;;;;;;8.82;65.39;100708.38;5052642;28;20024;-80
2022/12/28 08:19:18;;;;;;;73.95;54.00;;;;;;;9.46;65.49;100829.88;5052982;28;20502;-79
2022/12/28 08:21:44;;;;;;;89.80;63.28;;;;;;;9.48;65.53;100813.94;5052927;28;20032;-80
2022/12/28 08:24:15;;;;;;;85.53;60.65;;;;;;;9.08;65.73;100745.56;5053003;28;20107;-79
2022/12/28 08:26:42;;;;;;;85.03;59.55;;;;;;;9.33;65.14;100784.53;5052860;28;20032;-80
2022/12/28 08:29:11;;;;;;;75.28;54.47;;;;;;;8.89;65.55;100710.31;5052694;28;20021;-79
2022/12/28 08:31:39;;;;;;;79.07;55.78;;;;;;;9.53;65.18;100815.19;5056352;28;20029;-80
2022/12/28 08:34:07;;;;;;;75.15;55.35;;;;;;;9.54;65.22;100821.28;5055928;28;20029;-79
2022/12/28 08:36:33;;;;;;;78.40;58.35;;;;;;;9.17;64.84;100760.53;5052623;28;20055;-79
2022/12/28 08:39:00;;;;;;;72.15;52.63;;;;;;;8.71;64.80;100682.19;5052720;28;20020;-79
2022/12/28 08:41:27;;;;;;;71.95;52.55;;;;;;;9.53;65.12;100824.91;5052733;28;20048;-79
2022/12/28 08:43:53;;;;;;;69.88;48.85;;;;;;;9.14;65.18;100763.47;5052342;28;20063;-79
2022/12/28 08:46:24;;;;;;;62.00;45.70;;;;;;;9.53;65.11;100822.25;5052287;28;20029;-79
2022/12/28 08:48:51;;;;;;;62.67;46.88;;;;;;;9.01;65.15;100763.72;5052046;28;20074;-79
2022/12/28 08:51:22;;;;;;;64.78;49.17;;;;;;;9.59;65.34;100844.59;5051967;28;20080;-79
2022/12/28 08:53:48;;;;;;;67.43;50.25;;;;;;;9.59;65.30;100849.88;5051531;28;20386;-80
2022/12/28 08:56:18;;;;;;;62.08;46.55;;;;;;;9.42;65.29;100819.75;5055790;28;20048;-80
2022/12/28 08:58:45;;;;;;;66.78;49.72;;;;;;;9.46;65.09;100823.78;5052792;28;20027;-79
2022/12/28 09:01:13;;;;;;;66.72;50.70;;;;;;;9.64;65.22;100850.28;5051978;28;20108;-79
2022/12/28 09:03:41;;;;;;;74.82;53.83;;;;;;;9.32;64.58;100788.13;5052271;28;20029;-78
2022/12/28 09:06:09;;;;;;;72.18;54.63;;;;;;;9.51;64.90;100811.84;5051897;28;20033;-79
2022/12/28 09:08:35;;;;;;;75.22;57.63;;;;;;;9.16;65.23;100762.34;5051319;28;20103;-79
2022/12/28 09:11:11;;;;;;;82.10;62.67;;;;;;;9.69;64.77;100840.16;5051325;28;20488;-79
2022/12/28 09:13:37;;;;;;;82.60;61.78;;;;;;;9.57;65.23;100826.28;5051806;28;20508;-78
2022/12/28 09:16:10;;;;;;;79.18;61.33;;;;;;;9.65;65.21;100851.94;5051501;28;20029;-80
2022/12/28 09:18:36;;;;;;;80.93;59.28;;;;;;;9.53;65.38;100825.72;5050063;28;20025;-79
2022/12/28 09:21:07;;;;;;;75.63;59.85;;;;;;;8.94;65.08;100738.09;5051394;28;20035;-80
2022/12/28 09:23:33;;;;;;;73.40;56.05;;;;;;;9.59;65.13;100834.03;5051178;28;20064;-79
2022/12/28 09:26:11;;;;;;;72.70;54.28;;;;;;;9.56;65.44;100827.25;5051126;28;20053;-80
2022/12/28 09:28:37;;;;;;;66.93;47.70;;;;;;;9.55;65.14;100822.94;5050931;28;20056;-79
2022/12/28 09:31:07;;;;;;;65.18;49.17;;;;;;;9.34;65.13;100785.38;5051021;28;20056;-79
2022/12/28 09:36:18;;;;;;;64.97;46.72;;;;;;;9.59;64.76;100826.97;5051197;28;20047;-79
2022/12/28 09:38:45;;;;;;;66.28;48.28;;;;;;;9.39;64.74;100776.06;5050949;28;20416;-79
2022/12/28 09:41:32;;;;;;;64.22;47.72;;;;;;;9.61;65.21;100816.28;5050940;28;20486;-79
2022/12/28 09:44:30;;;;;;;63.45;46.75;;;;;;;9.37;64.65;100767.47;5050904;28;20037;-79
2022/12/28 09:47:07;;;;;;;64.55;47.97;;;;;;;9.68;64.61;100802.41;5051108;28;20025;-79
2022/12/28 09:49:58;;;;;;;60.33;43.00;;;;;;;9.70;64.52;100812.84;5049608;28;20021;-79
2022/12/28 09:52:34;;;;;;;59.10;44.17;;;;;;;9.73;64.49;100812.53;5050930;28;20051;-80
2022/12/28 09:55:10;;;;;;;59.20;43.38;;;;;;;8.10;63.88;100558.69;5049875;28;20282;-79
2022/12/28 09:57:43;;;;;;;52.35;40.30;;;;;;;9.75;63.86;100826.44;5051498;28;20025;-78
2022/12/28 10:00:22;;;;;;;50.58;37.40;;;;;;;9.68;63.41;100799.78;5051162;28;20028;-79
2022/12/28 10:03:14;;;;;;;47.42;35.53;;;;;;;9.65;63.70;100786.84;5050563;28;20075;-79
2022/12/28 10:05:40;;;;;;;44.35;32.00;;;;;;;9.85;63.44;100811.41;5050639;28;20413;-79
2022/12/28 10:08:05;;;;;;;40.00;29.88;;;;;;;9.79;62.79;100785.59;5050583;28;20028;-79
2022/12/28 10:10:31;;;;;;;62.28;46.45;;;;;;;9.42;62.96;100720.44;5050628;28;20025;-79
2022/12/28 10:13:02;;;;;;;68.70;52.20;;;;;;;9.97;63.18;100791.81;5050453;28;20072;-79
2022/12/28 10:15:27;;;;;;;66.10;46.97;;;;;;;9.91;63.29;100773.06;5050723;28;20056;-79
2022/12/28 10:17:53;;;;;;;56.17;42.17;;;;;;;8.88;62.63;100611.22;5050742;28;20295;-79
2022/12/28 10:20:20;;;;;;;57.42;43.92;;;;;;;10.04;62.19;100784.13;5051371;28;20028;-79
2022/12/28 10:22:55;;;;;;;56.15;41.47;;;;;;;9.88;62.10;100769.75;5054630;28;20036;-79
2022/12/28 10:25:23;;;;;;;42.95;33.05;;;;;;;10.06;61.65;100804.13;5054648;28;20033;-79
2022/12/28 10:27:49;;;;;;;43.05;31.90;;;;;;;10.05;61.33;100799.81;5054515;28;20565;-79
2022/12/28 10:30:47;;;;;;;37.25;29.17;;;;;;;10.07;60.40;100804.97;5054321;28;20108;-79
2022/12/28 10:33:18;;;;;;;29.27;23.42;;;;;;;9.52;60.33;100715.13;5052869;28;20029;-79
2022/12/28 10:35:52;;;;;;;24.50;18.77;;;;;;;10.08;60.51;100799.53;5054163;28;20040;-79
2022/12/28 10:38:29;;;;;;;27.15;19.77;;;;;;;10.12;60.43;100800.09;5054108;28;20104;-80
2022/12/28 10:41:00;;;;;;;30.13;22.42;;;;;;;9.71;59.94;100720.38;5054307;28;20029;-79
2022/12/28 10:43:32;;;;;;;29.65;24.13;;;;;;;10.10;59.72;100781.75;5054287;28;20052;-79
2022/12/28 10:45:59;;;;;;;32.80;22.77;;;;;;;10.10;59.79;100768.56;5052898;28;20040;-79
2022/12/28 10:48:29;;;;;;;25.98;20.60;;;;;;;10.20;59.51;100768.56;5053862;28;20029;-79
2022/12/28 10:51:10;;;;;;;20.52;16.08;;;;;;;10.35;59.29;100777.66;5053926;28;20040;-79
2022/12/28 10:53:44;;;;;;;14.30;11.18;;;;;;;10.11;59.58;100735.91;5052740;28;20105;-79
2022/12/28 10:56:12;;;;;;;11.93;10.73;;;;;;;10.41;59.26;100774.44;5053972;28;20532;-79
2022/12/28 10:58:39;;;;;;;15.35;9.55;;;;;;;10.30;59.61;100764.06;5053665;28;20040;-79
2022/12/28 11:01:11;;;;;;;10.75;9.32;;;;;;;10.47;59.30;100781.78;5053598;28;20013;-79
2022/12/28 11:03:38;;;;;;;12.02;10.00;;;;;;;10.47;59.47;100773.03;5053916;28;20119;-79
2022/12/28 11:06:10;;;;;;;10.07;8.82;;;;;;;10.49;59.79;100773.72;5052492;28;20025;-79
2022/12/28 11:08:36;;;;;;;10.00;8.60;;;;;;;10.33;59.61;100747.09;5052353;28;20120;-79
2022/12/28 11:11:02;;;;;;;10.50;8.77;;;;;;;9.82;59.60;100662.19;5053662;28;20029;-79
2022/12/28 11:13:27;;;;;;;12.20;9.20;;;;;;;10.50;59.75;100762.19;5053588;28;20489;-79
2022/12/28 11:15:53;;;;;;;8.57;7.38;;;;;;;10.68;59.70;100776.25;5053668;28;20425;-79
2022/12/28 11:18:19;;;;;;;12.02;7.80;;;;;;;10.69;59.47;100774.44;5052068;28;20017;-79
2022/12/28 11:20:50;;;;;;;9.70;6.75;;;;;;;10.57;58.95;100743.94;5053372;28;20025;-79
2022/12/28 11:23:20;;;;;;;12.40;8.35;;;;;;;10.79;59.14;100769.91;5053552;28;20045;-80
2022/12/28 11:25:46;;;;;;;11.07;7.45;;;;;;;10.17;59.21;100661.44;5053149;28;20024;-79
2022/12/28 11:28:15;;;;;;;8.45;6.85;;;;;;;10.30;59.03;100676.94;5052981;28;20086;-79
2022/12/28 11:30:42;;;;;;;12.50;9.55;;;;;;;10.86;58.66;100763.06;5053199;28;20055;-79
2022/12/28 11:33:47;;;;;;;12.85;8.65;;;;;;;10.42;58.98;100707.47;5052527;28;20028;-79
2022/12/28 11:36:18;;;;;;;9.10;6.95;;;;;;;10.89;58.72;100759.28;5052539;28;20033;-79
2022/12/28 11:38:46;;;;;;;9.73;6.85;;;;;;;10.87;58.79;100750.69;5052858;28;20025;-80
2022/12/28 11:41:24;;;;;;;11.30;7.25;;;;;;;10.89;58.62;100748.72;5052899;28;20017;-79
2022/12/28 11:43:56;;;;;;;14.02;8.77;;;;;;;10.91;58.53;100750.22;5053090;28;20025;-79
2022/12/28 11:46:21;;;;;;;11.55;8.25;;;;;;;10.98;59.02;100743.34;5053335;28;20035;-79
2022/12/28 11:49:25;;;;;;;10.75;8.27;;;;;;;11.09;58.77;100739.66;5053206;28;20108;-79
2022/12/28 11:52:15;;;;;;;9.80;7.35;;;;;;;11.14;58.70;100732.91;5050707;28;20037;-79
2022/12/28 11:54:51;;;;;;;11.52;8.90;;;;;;;11.27;58.80;100737.84;5053536;28;20021;-79
2022/12/28 11:57:33;;;;;;;9.32;7.40;;;;;;;11.36;57.56;100744.03;5055442;28;20060;-79
2022/12/28 12:00:20;;;;;;;9.15;6.97;;;;;;;11.46;58.05;100742.13;5060922;28;20047;-79